Time;durP1;ratioP1;P1;durP2;ratioP2;P2;SDS_P1;SDS_P2;PMS_P1;PMS_P2;Temp;Humidity;BMP_temperature;BMP_pressure;BME280_temperature;BME280_humidity;BME280_pressure;Samples;Min_cycle;Max_cycle;Signal;HPM_P1;HPM_P2
2021/03/29 00:02:00;;;;;;;8.68;3.55;;;;;;;10.18;56.77;101896.91;5058272;28;20581;-69
2021/03/29 00:04:44;;;;;;;7.63;3.53;;;;;;;10.23;57.17;101897.47;5071962;28;20094;-69
2021/03/29 00:07:30;;;;;;;9.77;3.75;;;;;;;10.21;57.29;101896.69;5071934;28;20047;-69
2021/03/29 00:10:15;;;;;;;9.38;3.45;;;;;;;10.11;58.31;101900.94;5071877;28;20113;-68
2021/03/29 00:13:01;;;;;;;5.85;3.50;;;;;;;10.12;57.08;101907.13;5072192;28;20110;-69
2021/03/29 00:15:49;;;;;;;11.88;3.63;;;;;;;9.95;60.52;101900.22;5072103;28;20178;-69
2021/03/29 00:18:33;;;;;;;10.77;3.33;;;;;;;9.72;60.31;101900.88;5071717;28;20504;-69
2021/03/29 00:21:17;;;;;;;8.43;3.10;;;;;;;9.59;59.71;101901.75;5072039;28;20048;-69
2021/03/29 00:24:03;;;;;;;6.60;3.45;;;;;;;9.45;61.09;101901.78;5071964;28;20128;-69
2021/03/29 00:26:50;;;;;;;6.97;3.45;;;;;;;9.56;58.49;101896.66;5072005;28;20462;-69
2021/03/29 00:29:34;;;;;;;5.40;2.47;;;;;;;9.47;60.98;101898.06;5057931;28;20055;-68
2021/03/29 00:32:18;;;;;;;7.50;2.95;;;;;;;9.43;59.03;101901.88;5057640;28;20048;-69
2021/03/29 00:35:02;;;;;;;7.45;3.35;;;;;;;9.22;62.51;101897.06;5057995;28;20097;-69
2021/03/29 00:37:48;;;;;;;8.00;2.70;;;;;;;9.07;63.86;101900.69;5071602;28;20051;-69
2021/03/29 00:40:32;;;;;;;6.32;3.10;;;;;;;8.91;64.50;101903.44;5071603;28;20090;-69
2021/03/29 00:43:21;;;;;;;10.27;3.33;;;;;;;8.76;64.86;101903.53;5071539;28;20096;-69
2021/03/29 00:46:06;;;;;;;7.13;2.80;;;;;;;8.59;64.74;101904.56;5071812;28;20055;-69
2021/03/29 00:48:54;;;;;;;8.07;3.00;;;;;;;8.50;67.09;101905.09;5058988;28;20131;-69
2021/03/29 00:51:39;;;;;;;5.75;2.28;;;;;;;8.36;67.98;101898.91;5075407;28;20137;-69
2021/03/29 00:54:23;;;;;;;10.35;2.60;;;;;;;8.22;68.95;101906.81;5075195;28;20063;-68
2021/03/29 00:57:07;;;;;;;5.03;3.13;;;;;;;8.12;69.46;101908.25;5075596;28;20075;-70
2021/03/29 00:59:51;;;;;;;6.32;2.17;;;;;;;8.00;70.15;101911.63;5075189;28;20098;-69
2021/03/29 01:02:35;;;;;;;;;;;;;;;7.91;70.96;101917.47;5061372;28;20047;-69
2021/03/29 01:05:22;;;;;;;9.70;2.15;;;;;;;7.84;71.17;101918.78;5075933;28;20320;-69
2021/03/29 01:08:07;;;;;;;6.07;2.90;;;;;;;7.84;70.54;101910.81;5074845;28;20047;-69
2021/03/29 01:10:52;;;;;;;8.95;2.65;;;;;;;7.74;71.22;101910.47;5075032;28;20093;-69
2021/03/29 01:13:42;;;;;;;6.20;2.67;;;;;;;7.67;71.76;101919.75;5060881;28;20109;-70
2021/03/29 01:16:29;;;;;;;5.72;2.70;;;;;;;7.58;71.60;101914.94;5075987;28;20139;-69
2021/03/29 01:19:32;;;;;;;6.57;2.95;;;;;;;7.54;72.66;101909.88;5075026;28;20516;-69
2021/03/29 01:22:18;;;;;;;8.30;2.97;;;;;;;7.57;71.67;101909.72;5074818;28;20051;-69
2021/03/29 01:25:26;;;;;;;8.25;3.03;;;;;;;7.65;70.12;101904.84;5074559;28;20048;-69
2021/03/29 01:28:16;;;;;;;8.10;2.83;;;;;;;7.59;71.07;101903.38;5060342;28;20101;-69
2021/03/29 01:31:01;;;;;;;7.88;2.72;;;;;;;7.69;68.52;101909.88;5060635;28;20101;-69
2021/03/29 01:33:45;;;;;;;7.63;2.78;;;;;;;7.68;71.22;101904.66;5074212;28;20071;-69
2021/03/29 01:36:30;;;;;;;9.80;2.92;;;;;;;7.57;72.03;101906.22;5074622;28;20075;-69
2021/03/29 01:39:14;;;;;;;8.00;2.78;;;;;;;7.74;70.86;101906.97;5074308;28;20143;-70
2021/03/29 01:41:59;;;;;;;7.03;3.58;;;;;;;7.81;68.63;101905.66;5074486;28;20175;-69
2021/03/29 01:44:44;;;;;;;5.47;2.80;;;;;;;7.93;65.82;101910.28;5060311;28;20710;-69
2021/03/29 01:47:28;;;;;;;;;;;;;;;8.12;64.74;101905.59;5074548;28;20467;-69
2021/03/29 01:50:17;;;;;;;7.30;2.70;;;;;;;8.23;64.18;101911.22;5088729;28;20341;-69
2021/03/29 01:53:02;;;;;;;7.60;2.63;;;;;;;8.18;66.14;101910.56;5075603;28;20128;-66
2021/03/29 01:55:46;;;;;;;9.88;2.78;;;;;;;8.28;65.35;101917.09;5074142;28;20511;-67
2021/03/29 01:58:29;;;;;;;9.20;2.90;;;;;;;8.15;66.47;101922.22;5074131;28;20114;-65
2021/03/29 02:01:13;;;;;;;7.72;3.10;;;;;;;8.21;64.17;101915.72;5073254;28;20055;-66
2021/03/29 02:03:57;;;;;;;10.43;3.10;;;;;;;8.10;66.33;101915.47;5073734;28;20051;-67
2021/03/29 02:06:41;;;;;;;;;;;;;;;8.12;65.59;101910.91;5074459;28;20048;-66
2021/03/29 02:09:25;;;;;;;4.20;2.80;;;;;;;7.97;68.39;101917.13;5088289;28;20284;-66
2021/03/29 02:12:10;;;;;;;10.38;3.20;;;;;;;7.80;69.93;101914.56;5074731;28;20056;-66
2021/03/29 02:14:54;;;;;;;6.97;3.25;;;;;;;7.66;70.62;101922.47;5074068;28;20128;-66
2021/03/29 02:17:38;;;;;;;6.90;2.60;;;;;;;7.56;70.83;101918.63;5073782;28;20110;-66
2021/03/29 02:20:26;;;;;;;12.55;3.22;;;;;;;7.51;70.61;101917.16;5074639;28;20102;-66
2021/03/29 02:23:10;;;;;;;6.28;2.92;;;;;;;7.37;71.95;101920.56;5073511;28;20048;-66
2021/03/29 02:25:55;;;;;;;4.75;2.78;;;;;;;7.25;73.32;101918.59;5074567;28;20137;-66
2021/03/29 02:28:40;;;;;;;6.10;3.05;;;;;;;7.24;72.44;101919.53;5059171;28;20043;-67
2021/03/29 02:31:25;;;;;;;6.20;3.28;;;;;;;7.14;72.90;101918.31;5073516;28;20547;-66
2021/03/29 02:34:09;;;;;;;12.30;2.80;;;;;;;7.07;74.25;101927.53;5072976;28;20102;-67
2021/03/29 02:36:54;;;;;;;5.47;2.63;;;;;;;6.98;74.18;101920.06;5074133;28;20093;-66
2021/03/29 02:39:37;;;;;;;6.57;2.50;;;;;;;6.94;74.48;101917.66;5073071;28;20531;-67
2021/03/29 02:42:22;;;;;;;7.75;2.83;;;;;;;6.97;73.87;101921.00;5074222;28;20501;-66
2021/03/29 02:45:10;;;;;;;6.90;2.72;;;;;;;6.94;73.79;101920.31;5074229;28;20070;-66
2021/03/29 02:47:58;;;;;;;4.80;2.97;;;;;;;6.86;74.01;101928.69;5073158;28;20480;-66
2021/03/29 02:50:44;;;;;;;7.35;2.80;;;;;;;6.78;74.34;101930.88;5073165;28;20043;-66
2021/03/29 02:53:31;;;;;;;6.85;2.70;;;;;;;6.73;75.10;101930.28;5073983;28;20117;-66
2021/03/29 02:56:19;;;;;;;8.18;3.63;;;;;;;6.68;75.44;101945.53;5072791;28;20059;-66
2021/03/29 02:59:11;;;;;;;6.10;2.83;;;;;;;6.78;74.08;101940.63;5073383;28;20174;-66
2021/03/29 03:01:56;;;;;;;7.57;2.90;;;;;;;6.67;75.61;101943.81;5072929;28;20113;-66
2021/03/29 03:04:41;;;;;;;7.25;3.30;;;;;;;6.59;76.05;101940.75;5072701;28;20047;-66
2021/03/29 03:07:25;;;;;;;11.43;4.00;;;;;;;6.73;75.36;101943.53;5072897;28;20122;-67
2021/03/29 03:10:12;;;;;;;6.50;3.03;;;;;;;6.73;74.80;101942.66;5058913;28;20043;-65
2021/03/29 03:12:57;;;;;;;8.13;3.25;;;;;;;6.67;75.49;101949.13;5072790;28;20094;-65
2021/03/29 03:15:41;;;;;;;7.95;3.22;;;;;;;6.57;75.95;101947.88;5073462;28;20042;-67
2021/03/29 03:18:25;;;;;;;7.97;2.70;;;;;;;6.44;76.83;101941.50;5072659;28;20047;-66
2021/03/29 03:21:14;;;;;;;8.50;3.15;;;;;;;6.30;77.44;101944.00;5072405;28;20105;-66
2021/03/29 03:23:58;;;;;;;4.78;2.67;;;;;;;6.20;78.10;101948.03;5073301;28;20075;-66
2021/03/29 03:26:43;;;;;;;7.40;3.00;;;;;;;6.15;78.53;101954.50;5072329;28;20047;-66
2021/03/29 03:29:27;;;;;;;7.22;3.55;;;;;;;6.12;78.80;101954.63;5072606;28;20090;-66
2021/03/29 03:32:15;;;;;;;10.23;3.40;;;;;;;6.09;79.23;101955.66;5072471;28;20051;-66
2021/03/29 03:34:58;;;;;;;10.65;3.88;;;;;;;6.17;79.40;101947.34;5072491;28;20151;-65
2021/03/29 03:38:09;;;;;;;8.88;4.28;;;;;;;6.18;78.68;101949.88;5073290;28;20055;-67
2021/03/29 03:41:00;;;;;;;6.93;3.45;;;;;;;6.10;79.61;101944.13;5072447;28;20412;-67
2021/03/29 03:43:52;;;;;;;4.55;2.75;;;;;;;6.03;79.59;101949.78;5058695;28;20118;-67
2021/03/29 03:46:40;;;;;;;11.77;4.05;;;;;;;5.96;80.13;101954.53;5072077;28;20464;-67
2021/03/29 03:49:25;;;;;;;12.20;4.38;;;;;;;6.02;81.14;101959.53;5072042;28;20145;-67
2021/03/29 03:52:09;;;;;;;6.22;3.75;;;;;;;6.01;82.63;101955.19;5072051;28;20047;-66
2021/03/29 03:54:54;;;;;;;7.55;3.05;;;;;;;5.95;82.13;101955.47;5072043;28;20101;-67
2021/03/29 03:57:39;;;;;;;10.02;3.30;;;;;;;5.86;82.49;101958.53;5072998;28;20047;-67
2021/03/29 04:00:25;;;;;;;8.07;4.57;;;;;;;5.87;83.01;101948.84;5073033;28;20516;-66
2021/03/29 04:03:09;;;;;;;6.43;3.72;;;;;;;5.80;82.81;101950.06;5073246;28;20055;-67
2021/03/29 04:05:54;;;;;;;9.13;4.18;;;;;;;5.71;82.46;101953.09;5072440;28;20052;-67
2021/03/29 04:08:38;;;;;;;12.57;4.40;;;;;;;5.72;83.44;101958.34;5072223;28;20048;-67
2021/03/29 04:11:26;;;;;;;7.80;4.47;;;;;;;5.77;83.31;101952.81;5073392;28;20051;-66
2021/03/29 04:14:10;;;;;;;7.80;4.18;;;;;;;5.76;82.78;101949.31;5073036;28;20094;-65
2021/03/29 04:16:54;;;;;;;9.48;3.05;;;;;;;5.68;83.31;101962.06;5072057;28;20206;-66
2021/03/29 04:19:38;;;;;;;11.27;3.75;;;;;;;5.63;83.00;101963.22;5071704;28;20079;-65
2021/03/29 04:22:22;;;;;;;6.95;3.40;;;;;;;5.62;83.76;101959.69;5071938;28;20047;-65
2021/03/29 04:25:08;;;;;;;10.38;4.43;;;;;;;5.64;83.89;101964.94;5076768;28;20094;-65
2021/03/29 04:27:53;;;;;;;7.85;4.38;;;;;;;5.70;83.53;101962.84;5075674;28;20093;-67
2021/03/29 04:30:37;;;;;;;8.25;3.50;;;;;;;5.63;84.07;101966.69;5076817;28;20043;-67
2021/03/29 04:33:22;;;;;;;6.28;3.70;;;;;;;5.58;83.63;101971.38;5075402;28;20074;-66
2021/03/29 04:36:06;;;;;;;6.97;3.42;;;;;;;5.53;84.14;101970.72;5075455;28;20094;-66
2021/03/29 04:38:50;;;;;;;7.38;3.22;;;;;;;5.47;83.86;101973.66;5076273;28;20097;-66
2021/03/29 04:41:34;;;;;;;6.53;3.55;;;;;;;5.42;84.15;101973.00;5075592;28;20048;-66
2021/03/29 04:44:19;;;;;;;4.88;3.42;;;;;;;5.37;84.57;101985.59;5075162;28;20055;-65
2021/03/29 04:47:03;;;;;;;10.63;3.75;;;;;;;5.32;84.83;101990.22;5075481;28;20090;-66
2021/03/29 04:49:47;;;;;;;;;;;;;;;5.29;85.20;101992.13;5076123;28;20400;-65
2021/03/29 04:52:31;;;;;;;7.60;4.05;;;;;;;5.25;85.40;101991.41;5076261;28;19962;-66
2021/03/29 04:55:16;;;;;;;9.60;4.05;;;;;;;5.22;85.60;101999.50;5076294;28;20476;-66
2021/03/29 04:57:59;;;;;;;7.82;4.60;;;;;;;5.20;85.69;101993.41;5074964;28;20055;-66
2021/03/29 05:00:43;;;;;;;13.45;4.35;;;;;;;5.21;85.75;101995.13;5075005;28;20043;-65
2021/03/29 05:03:27;;;;;;;11.98;4.50;;;;;;;5.27;86.35;101999.28;5075999;28;20098;-66
2021/03/29 05:06:11;;;;;;;11.85;4.32;;;;;;;5.18;86.22;101992.63;5060758;28;20046;-66
2021/03/29 05:08:55;;;;;;;9.93;5.07;;;;;;;5.20;86.43;101997.81;5075085;28;20046;-66
2021/03/29 05:11:50;;;;;;;9.23;4.13;;;;;;;5.18;86.78;101994.41;5076602;28;20043;-66
2021/03/29 05:14:35;;;;;;;9.75;4.85;;;;;;;5.21;86.71;101994.25;5075965;28;20131;-65
2021/03/29 05:17:20;;;;;;;10.73;5.53;;;;;;;5.18;87.17;101997.91;5075898;28;20047;-66
2021/03/29 05:20:06;;;;;;;16.08;5.10;;;;;;;5.20;86.29;101998.69;5074835;28;20554;-66
2021/03/29 05:22:50;;;;;;;8.27;5.05;;;;;;;5.19;86.61;102002.28;5075507;28;20455;-66
2021/03/29 05:25:33;;;;;;;10.27;4.40;;;;;;;5.20;86.41;102004.00;5074751;28;20101;-66
2021/03/29 05:28:17;;;;;;;10.77;4.78;;;;;;;5.16;87.07;102005.06;5075480;28;20042;-66
2021/03/29 05:31:01;;;;;;;13.73;4.13;;;;;;;5.45;85.86;101999.28;5074626;28;20461;-66
2021/03/29 05:33:46;;;;;;;9.57;4.28;;;;;;;5.69;84.45;102003.47;5074157;28;20416;-66
2021/03/29 05:36:30;;;;;;;11.88;4.57;;;;;;;5.90;82.62;101998.97;5059258;28;20079;-66
2021/03/29 05:39:14;;;;;;;8.02;3.60;;;;;;;6.14;81.09;102003.94;5075643;28;20039;-65
2021/03/29 05:41:58;;;;;;;11.18;4.45;;;;;;;6.25;80.19;101996.34;5075227;28;20083;-65
2021/03/29 05:44:42;;;;;;;8.80;4.07;;;;;;;6.31;79.37;102008.41;5075344;28;20072;-66
2021/03/29 05:47:27;;;;;;;6.72;3.78;;;;;;;6.37;79.25;102008.97;5060207;28;20055;-66
2021/03/29 05:50:13;;;;;;;7.10;3.70;;;;;;;6.48;78.30;102006.63;5074029;28;20089;-66
2021/03/29 05:52:58;;;;;;;5.97;3.65;;;;;;;6.47;77.53;102015.53;5073948;28;20052;-66
2021/03/29 05:55:44;;;;;;;7.93;3.45;;;;;;;6.47;78.14;102010.22;5075081;28;20079;-66
2021/03/29 06:01:12;;;;;;;7.28;3.70;;;;;;;6.42;77.45;102017.56;5074975;28;20078;-65
2021/03/29 06:03:56;;;;;;;8.60;4.60;;;;;;;6.37;77.98;102024.84;5073735;28;20048;-65
2021/03/29 06:06:41;;;;;;;8.43;3.90;;;;;;;6.40;78.12;102029.16;5075108;28;20464;-66
2021/03/29 06:09:25;;;;;;;9.15;3.88;;;;;;;6.57;76.57;102037.97;5074927;28;20083;-66
2021/03/29 06:12:11;;;;;;;8.65;3.85;;;;;;;6.62;76.27;102033.31;5073736;28;20094;-65
2021/03/29 06:15:02;;;;;;;6.95;3.92;;;;;;;6.76;75.27;102038.78;5073614;28;20132;-66
2021/03/29 06:17:46;;;;;;;6.63;3.65;;;;;;;6.87;74.70;102040.91;5059425;28;20081;-66
2021/03/29 06:20:30;;;;;;;10.50;4.40;;;;;;;6.87;75.51;102047.03;5074406;28;20101;-67
2021/03/29 06:23:14;;;;;;;11.93;4.03;;;;;;;6.96;74.61;102053.69;5073647;28;20086;-65
2021/03/29 06:26:16;;;;;;;7.35;4.20;;;;;;;7.03;74.19;102057.72;5073627;28;20048;-67
2021/03/29 06:29:17;;;;;;;11.43;4.68;;;;;;;7.08;74.62;102056.53;5074922;28;20106;-67
2021/03/29 06:32:01;;;;;;;10.45;3.80;;;;;;;7.17;73.66;102061.38;5074343;28;20098;-66
2021/03/29 06:34:48;;;;;;;9.48;4.78;;;;;;;7.25;73.98;102069.78;5059271;28;20048;-65
2021/03/29 06:37:32;;;;;;;11.70;5.00;;;;;;;7.29;74.29;102070.50;5073241;28;20047;-66
2021/03/29 06:40:17;;;;;;;8.88;4.47;;;;;;;7.31;75.12;102063.31;5073105;28;20128;-66
2021/03/29 06:43:15;;;;;;;7.75;4.05;;;;;;;7.42;74.89;102066.25;5073890;28;20139;-66
2021/03/29 06:46:01;;;;;;;12.10;4.13;;;;;;;7.51;72.98;102066.63;5073042;28;20047;-66
2021/03/29 06:48:45;;;;;;;9.20;3.92;;;;;;;7.61;73.39;102068.72;5072844;28;20059;-66
2021/03/29 06:51:33;;;;;;;10.30;4.28;;;;;;;7.79;71.66;102069.50;5072896;28;20519;-66
2021/03/29 06:54:24;;;;;;;11.10;4.25;;;;;;;7.96;72.45;102074.75;5072850;28;20044;-66
2021/03/29 06:57:08;;;;;;;10.00;4.53;;;;;;;8.05;71.64;102074.25;5058851;28;20051;-66
2021/03/29 06:59:54;;;;;;;9.98;4.88;;;;;;;8.19;72.01;102066.41;5073042;28;20085;-66
2021/03/29 07:02:43;;;;;;;11.77;4.68;;;;;;;8.27;72.74;102059.69;5058663;28;20106;-66
2021/03/29 07:05:27;;;;;;;9.63;4.47;;;;;;;8.37;72.90;102063.56;5072919;28;20089;-66
2021/03/29 07:08:14;;;;;;;14.13;4.97;;;;;;;8.43;73.36;102065.00;5072581;28;20094;-66
2021/03/29 07:10:59;;;;;;;8.13;4.82;;;;;;;8.54;73.17;102062.63;5072850;28;20098;-66
2021/03/29 07:13:44;;;;;;;9.88;5.18;;;;;;;8.61;72.33;102069.28;5058640;28;20043;-66
2021/03/29 07:16:28;;;;;;;10.55;4.72;;;;;;;8.65;70.88;102078.81;5072553;28;20416;-66
2021/03/29 07:19:13;;;;;;;11.93;4.40;;;;;;;8.74;72.15;102083.56;5072856;28;20073;-65
2021/03/29 07:21:57;;;;;;;6.25;4.20;;;;;;;8.82;70.89;102078.66;5072342;28;20051;-65
2021/03/29 07:24:41;;;;;;;10.23;5.03;;;;;;;8.91;69.69;102079.00;5073885;28;20070;-66
2021/03/29 07:27:25;;;;;;;7.65;4.70;;;;;;;9.08;69.17;102086.81;5072639;28;20098;-65
2021/03/29 07:30:12;;;;;;;9.45;4.68;;;;;;;9.16;69.74;102083.72;5072530;28;20120;-66
2021/03/29 07:32:58;;;;;;;11.77;5.03;;;;;;;9.33;69.73;102088.88;5058289;28;20508;-66
2021/03/29 07:36:00;;;;;;;7.05;4.05;;;;;;;9.49;67.72;102084.34;5073482;28;20554;-66
2021/03/29 07:38:58;;;;;;;10.48;5.20;;;;;;;9.67;68.12;102093.88;5072412;28;20484;-66
2021/03/29 07:41:42;;;;;;;7.75;4.63;;;;;;;9.79;66.46;102093.13;5072158;28;20051;-65
2021/03/29 07:44:26;;;;;;;13.48;5.50;;;;;;;9.87;67.28;102094.34;5072343;28;20042;-65
2021/03/29 07:47:10;;;;;;;10.75;4.40;;;;;;;10.00;65.77;102097.09;5072395;28;20051;-66
2021/03/29 07:49:54;;;;;;;9.45;5.00;;;;;;;10.18;64.07;102093.31;5072243;28;20124;-66
2021/03/29 07:52:40;;;;;;;9.60;4.97;;;;;;;10.35;62.71;102092.09;5072133;28;20051;-65
2021/03/29 07:55:32;;;;;;;7.68;4.22;;;;;;;10.56;62.05;102090.69;5073010;28;20551;-66
2021/03/29 07:58:20;;;;;;;10.10;4.05;;;;;;;10.77;61.80;102089.28;5072756;28;20124;-66
2021/03/29 08:01:06;;;;;;;11.27;4.78;;;;;;;11.02;60.37;102084.03;5077285;28;20105;-67
2021/03/29 08:03:56;;;;;;;12.07;4.43;;;;;;;11.16;57.81;102086.63;5077219;28;20081;-66
2021/03/29 08:06:45;;;;;;;10.75;4.88;;;;;;;11.32;57.71;102086.41;5077030;28;20512;-65
2021/03/29 08:09:42;;;;;;;8.15;4.53;;;;;;;11.50;58.33;102090.50;5077466;28;20043;-67
2021/03/29 08:12:27;;;;;;;8.38;3.97;;;;;;;11.65;56.12;102095.66;5077114;28;20071;-66
2021/03/29 08:15:11;;;;;;;8.95;3.80;;;;;;;11.80;56.30;102099.09;5076803;28;20547;-67
2021/03/29 08:17:59;;;;;;;8.50;5.00;;;;;;;11.97;57.62;102096.91;5075831;28;20052;-66
2021/03/29 08:20:52;;;;;;;11.38;4.90;;;;;;;12.13;56.11;102092.19;5076940;28;20052;-66
2021/03/29 08:23:38;;;;;;;12.73;4.28;;;;;;;12.29;54.91;102099.97;5076855;28;20071;-66
2021/03/29 08:26:23;;;;;;;9.35;3.95;;;;;;;12.44;53.90;102090.81;5076835;28;20101;-66
2021/03/29 08:29:07;;;;;;;5.43;3.72;;;;;;;12.63;53.12;102092.03;5076445;28;20047;-66
2021/03/29 08:32:11;;;;;;;8.50;3.80;;;;;;;12.89;53.59;102093.63;5076860;28;20102;-67
2021/03/29 08:35:01;;;;;;;7.45;3.20;;;;;;;13.13;49.72;102094.47;5075701;28;20579;-65
2021/03/29 08:37:51;;;;;;;9.30;3.88;;;;;;;13.38;49.55;102086.25;5076632;28;20055;-67
2021/03/29 08:40:35;;;;;;;6.15;2.97;;;;;;;13.59;47.46;102095.31;5061183;28;20074;-66
2021/03/29 08:43:22;;;;;;;6.57;3.15;;;;;;;13.75;46.64;102101.19;5075429;28;20043;-66
2021/03/29 08:46:06;;;;;;;4.53;2.67;;;;;;;13.92;47.11;102095.34;5061522;28;20101;-66
2021/03/29 08:48:50;;;;;;;4.13;2.47;;;;;;;13.97;44.30;102109.25;5075510;28;20048;-66
2021/03/29 08:51:34;;;;;;;6.10;2.58;;;;;;;14.02;43.93;102115.94;5075672;28;20045;-66
2021/03/29 08:54:19;;;;;;;5.30;3.17;;;;;;;14.05;43.28;102104.09;5076229;28;20407;-66
2021/03/29 08:57:06;;;;;;;7.40;3.20;;;;;;;14.22;45.17;102101.84;5061196;28;20044;-66
2021/03/29 08:59:54;;;;;;;5.18;3.10;;;;;;;14.45;44.95;102102.63;5061152;28;20110;-66
2021/03/29 09:02:39;;;;;;;5.03;2.85;;;;;;;14.65;44.59;102105.41;5076102;28;20043;-65
2021/03/29 09:05:24;;;;;;;6.82;2.88;;;;;;;14.83;44.47;102098.53;5075465;28;20114;-66
2021/03/29 09:08:09;;;;;;;8.10;3.20;;;;;;;14.93;45.01;102093.22;5074879;28;20094;-67
2021/03/29 09:10:59;;;;;;;9.98;3.13;;;;;;;14.98;45.04;102099.09;5075047;28;20042;-66
2021/03/29 09:13:43;;;;;;;5.05;2.88;;;;;;;14.93;44.77;102093.22;5074711;28;20082;-66
2021/03/29 09:16:27;;;;;;;13.18;3.17;;;;;;;15.06;44.74;102091.22;5075812;28;20047;-66
2021/03/29 09:19:19;;;;;;;5.60;2.97;;;;;;;15.29;44.28;102085.59;5074616;28;20158;-66
2021/03/29 09:22:04;;;;;;;8.00;3.08;;;;;;;15.49;43.88;102092.00;5074867;28;20047;-65
2021/03/29 09:24:47;;;;;;;5.60;2.80;;;;;;;15.72;44.42;102100.63;5074559;28;20087;-66
2021/03/29 09:27:36;;;;;;;7.20;3.03;;;;;;;15.90;42.70;102104.41;5075744;28;20079;-67
2021/03/29 09:30:20;;;;;;;5.93;2.70;;;;;;;16.25;42.17;102099.44;5061182;28;20585;-66
2021/03/29 09:33:04;;;;;;;6.72;2.80;;;;;;;16.38;41.86;102104.63;5075267;28;20047;-66
2021/03/29 09:35:50;;;;;;;7.38;3.17;;;;;;;16.66;41.89;102093.91;5074889;28;20178;-67
2021/03/29 09:38:37;;;;;;;4.75;2.15;;;;;;;16.79;37.84;102099.88;5060030;28;20503;-66
2021/03/29 09:41:23;;;;;;;4.68;2.83;;;;;;;17.14;40.40;102089.41;5060157;28;20511;-67
2021/03/29 09:44:09;;;;;;;6.63;2.25;;;;;;;17.85;37.75;102101.50;5075224;28;20141;-67
2021/03/29 09:46:54;;;;;;;6.28;2.78;;;;;;;18.41;34.81;102099.59;5075160;28;20078;-66
2021/03/29 09:49:49;;;;;;;6.32;2.30;;;;;;;19.25;33.28;102092.75;5074626;28;20066;-66
2021/03/29 09:52:41;;;;;;;7.22;2.70;;;;;;;21.10;31.24;102089.06;5074956;28;20562;-66
2021/03/29 09:55:39;;;;;;;7.03;2.83;;;;;;;21.38;30.18;102094.84;5074280;28;20416;-66
2021/03/29 09:58:32;;;;;;;5.50;2.80;;;;;;;23.64;28.20;102083.56;5075319;28;20059;-65
2021/03/29 10:01:19;;;;;;;4.47;2.90;;;;;;;24.29;26.10;102084.59;5060250;28;20048;-65
2021/03/29 10:04:02;;;;;;;5.60;2.55;;;;;;;23.34;27.22;102083.72;5074036;28;20098;-64
2021/03/29 10:06:54;;;;;;;4.07;2.45;;;;;;;23.03;28.25;102091.91;5074335;28;20455;-65
2021/03/29 10:09:38;;;;;;;10.15;2.95;;;;;;;23.26;28.06;102081.06;5059667;28;20045;-65
2021/03/29 10:12:27;;;;;;;7.72;2.67;;;;;;;23.60;26.77;102082.25;5073966;28;20105;-65
2021/03/29 10:15:14;;;;;;;7.20;2.42;;;;;;;25.23;23.47;102077.13;5073863;28;20105;-65
2021/03/29 10:18:06;;;;;;;5.40;2.10;;;;;;;26.38;22.81;102067.22;5074761;28;20101;-65
2021/03/29 10:20:50;;;;;;;4.00;2.00;;;;;;;26.07;23.08;102072.31;5073172;28;20106;-64
2021/03/29 10:23:36;;;;;;;6.45;2.20;;;;;;;26.88;22.53;102072.22;5073813;28;20051;-65
2021/03/29 10:26:30;;;;;;;10.07;2.83;;;;;;;28.14;21.47;102068.28;5073433;28;20118;-65
2021/03/29 10:29:14;;;;;;;5.82;2.30;;;;;;;27.19;21.51;102062.44;5073506;28;20447;-64
2021/03/29 10:31:58;;;;;;;4.10;2.10;;;;;;;26.49;21.89;102063.91;5074361;28;20102;-65
2021/03/29 10:34:43;;;;;;;7.50;2.28;;;;;;;27.71;21.03;102053.38;5074457;28;20417;-65
2021/03/29 10:37:28;;;;;;;4.40;2.10;;;;;;;27.01;21.21;102059.41;5073403;28;20133;-65
2021/03/29 10:40:13;;;;;;;8.98;2.30;;;;;;;27.70;20.98;102059.88;5075533;28;20110;-65
2021/03/29 10:42:57;;;;;;;5.70;2.30;;;;;;;28.06;20.03;102054.78;5073200;28;20412;-65
2021/03/29 10:45:41;;;;;;;5.13;2.35;;;;;;;26.64;21.65;102067.34;5073494;28;20447;-65
2021/03/29 10:48:25;;;;;;;;;;;;;;;25.35;23.16;102062.75;5074468;28;20059;-64
2021/03/29 10:51:09;;;;;;;9.75;2.40;;;;;;;26.74;22.09;102045.91;5087508;28;20418;-65
2021/03/29 10:53:52;;;;;;;;;;;;;;;29.54;18.95;102040.44;5074394;28;20123;-65
2021/03/29 10:56:39;;;;;;;10.30;2.80;;;;;;;32.04;17.88;102037.25;5072738;28;19931;-65
2021/03/29 10:59:23;;;;;;;5.75;2.50;;;;;;;33.65;16.05;102037.38;5072589;28;20417;-65
2021/03/29 11:02:07;;;;;;;5.10;2.33;;;;;;;33.89;16.14;102038.88;5072876;28;20059;-66
2021/03/29 11:04:51;;;;;;;6.85;2.17;;;;;;;32.44;16.14;102027.97;5073583;28;20091;-65
2021/03/29 11:07:35;;;;;;;3.88;2.30;;;;;;;30.88;17.98;102040.97;5058932;28;20066;-65
2021/03/29 11:10:19;;;;;;;5.53;2.50;;;;;;;31.16;17.78;102019.16;5073801;28;20047;-65
2021/03/29 11:13:03;;;;;;;6.13;2.63;;;;;;;27.37;21.14;102038.00;5073707;28;20504;-65
2021/03/29 11:15:48;;;;;;;3.45;2.10;;;;;;;27.56;20.46;102037.16;5073474;28;20128;-65
2021/03/29 11:18:32;;;;;;;8.77;2.45;;;;;;;28.26;19.96;102031.72;5073890;28;20111;-65
2021/03/29 11:21:17;;;;;;;5.60;2.25;;;;;;;27.02;20.60;102031.00;5073636;28;20067;-65
2021/03/29 11:24:01;;;;;;;4.28;2.13;;;;;;;24.97;22.63;102034.00;5073243;28;20052;-64
2021/03/29 11:26:45;;;;;;;6.80;2.58;;;;;;;26.30;21.75;102026.38;5072820;28;20102;-63
2021/03/29 11:29:29;;;;;;;5.97;2.85;;;;;;;27.85;21.38;102009.31;5073528;28;20044;-64
2021/03/29 11:32:13;;;;;;;;;;;;;;;27.21;22.06;102024.72;5072609;28;20050;-63
2021/03/29 11:34:57;;;;;;;7.38;3.13;;;;;;;28.13;20.62;102018.03;5073263;28;19919;-64
2021/03/29 11:37:41;;;;;;;6.22;2.67;;;;;;;27.49;21.05;102019.88;5072500;28;20072;-63
2021/03/29 11:40:26;;;;;;;6.45;3.10;;;;;;;29.46;19.81;102013.22;5072156;28;20044;-64
2021/03/29 11:43:09;;;;;;;;;;;;;;;29.84;18.99;102005.66;5072606;28;20463;-64
2021/03/29 11:45:53;;;;;;;6.95;2.80;;;;;;;29.13;19.86;102005.25;5086699;28;19919;-64
2021/03/29 11:48:41;;;;;;;6.72;2.50;;;;;;;28.32;19.24;102017.13;5073247;28;20047;-64
2021/03/29 11:51:25;;;;;;;6.07;2.58;;;;;;;29.55;18.36;102004.47;5072205;28;20574;-64
2021/03/29 11:54:09;;;;;;;7.30;3.03;;;;;;;29.45;19.22;102008.81;5057766;28;20051;-64
2021/03/29 11:56:53;;;;;;;;;;;;;;;31.37;18.24;102002.03;5073329;28;20052;-63
2021/03/29 11:59:43;;;;;;;7.57;2.45;;;;;;;29.14;18.64;102001.44;5086140;28;19923;-64
2021/03/29 12:02:34;;;;;;;6.15;2.22;;;;;;;26.20;20.22;102019.59;5072190;28;20503;-64
2021/03/29 12:05:28;;;;;;;4.68;2.42;;;;;;;27.64;19.58;102005.94;5073140;28;20102;-64
2021/03/29 12:14:07;;;;;;;7.82;2.20;;;;;;;26.81;20.88;102013.94;5071946;28;20512;-63
2021/03/29 12:16:52;;;;;;;7.90;2.78;;;;;;;26.83;20.07;102000.00;5072987;28;20093;-64
2021/03/29 12:19:38;;;;;;;4.60;2.08;;;;;;;28.61;18.02;101996.53;5072948;28;20052;-63
2021/03/29 12:22:25;;;;;;;6.07;2.45;;;;;;;28.21;18.24;102009.59;5071751;28;20062;-63
2021/03/29 12:25:12;;;;;;;6.13;2.80;;;;;;;26.45;20.05;102007.91;5071842;28;20083;-64
2021/03/29 12:27:57;;;;;;;4.72;2.67;;;;;;;28.81;18.42;101989.84;5071734;28;20424;-63
2021/03/29 12:30:41;;;;;;;4.97;2.35;;;;;;;28.36;18.43;102001.94;5072013;28;20048;-62
2021/03/29 12:33:26;;;;;;;6.88;2.55;;;;;;;30.04;17.31;101988.69;5071456;28;20056;-62
2021/03/29 12:36:12;;;;;;;6.38;3.00;;;;;;;28.38;19.75;101988.88;5072656;28;20565;-64
2021/03/29 12:39:07;;;;;;;6.30;2.92;;;;;;;27.50;20.18;101988.69;5072814;28;20127;-64
2021/03/29 12:41:59;;;;;;;6.25;2.33;;;;;;;28.61;18.84;101980.06;5071990;28;20147;-64
2021/03/29 12:44:43;;;;;;;8.18;3.20;;;;;;;29.26;19.25;101982.34;5074104;28;20503;-64
2021/03/29 12:47:32;;;;;;;4.07;2.33;;;;;;;30.08;17.85;101970.69;5061159;28;20055;-64
2021/03/29 12:50:19;;;;;;;6.72;2.60;;;;;;;26.96;19.77;101978.16;5076441;28;20089;-63
2021/03/29 12:53:04;;;;;;;6.43;2.47;;;;;;;26.42;19.82;101978.22;5076187;28;20051;-63
2021/03/29 12:55:48;;;;;;;7.95;2.80;;;;;;;26.89;21.06;101972.69;5075038;28;20062;-63
2021/03/29 12:58:32;;;;;;;;;;;;;;;26.29;22.53;101964.53;5061597;28;20051;-63
2021/03/29 13:01:18;;;;;;;;;;;;;;;26.22;21.26;101965.53;5089731;28;20429;-64
2021/03/29 13:04:09;;;;;;;6.47;2.83;;;;;;;27.25;19.41;101962.16;5089407;28;19919;-64
2021/03/29 13:09:54;;;;;;;4.45;2.28;;;;;;;25.95;20.68;101964.59;5075096;28;20074;-63
2021/03/29 13:12:38;;;;;;;7.57;2.47;;;;;;;27.30;20.47;101955.00;5074691;28;20450;-64